sensor_id;sensor_type;location;lat;lon;timestamp;temperature;humidity
18694;DHT22;9477;51.414;10.362;2022-08-14T00:01:33;24.90;59.10
18694;DHT22;9477;51.414;10.362;2022-08-14T00:03:36;24.90;59.30
18694;DHT22;9477;51.414;10.362;2022-08-14T00:05:41;24.90;59.20
18694;DHT22;9477;51.414;10.362;2022-08-14T00:07:45;24.80;59.10
18694;DHT22;9477;51.414;10.362;2022-08-14T00:09:49;24.90;59.10
18694;DHT22;9477;51.414;10.362;2022-08-14T00:12:12;24.90;59.20
18694;DHT22;9477;51.414;10.362;2022-08-14T00:14:27;24.80;59.30
18694;DHT22;9477;51.414;10.362;2022-08-14T00:16:30;24.80;59.20
18694;DHT22;9477;51.414;10.362;2022-08-14T00:18:46;24.80;59.50
18694;DHT22;9477;51.414;10.362;2022-08-14T00:21:09;24.70;59.50
18694;DHT22;9477;51.414;10.362;2022-08-14T00:23:13;24.60;59.60
18694;DHT22;9477;51.414;10.362;2022-08-14T00:25:18;24.60;59.60
18694;DHT22;9477;51.414;10.362;2022-08-14T00:27:21;24.60;59.50
18694;DHT22;9477;51.414;10.362;2022-08-14T00:29:24;24.60;59.60
18694;DHT22;9477;51.414;10.362;2022-08-14T00:31:27;24.60;59.80
18694;DHT22;9477;51.414;10.362;2022-08-14T00:33:46;24.60;59.80
18694;DHT22;9477;51.414;10.362;2022-08-14T00:35:53;24.60;59.70
18694;DHT22;9477;51.414;10.362;2022-08-14T00:38:16;24.60;59.70
18694;DHT22;9477;51.414;10.362;2022-08-14T00:40:20;24.60;59.90
18694;DHT22;9477;51.414;10.362;2022-08-14T00:42:34;24.60;59.90
18694;DHT22;9477;51.414;10.362;2022-08-14T00:44:57;24.60;59.80
18694;DHT22;9477;51.414;10.362;2022-08-14T00:47:02;24.50;59.90
18694;DHT22;9477;51.414;10.362;2022-08-14T00:49:12;24.50;60.00
18694;DHT22;9477;51.414;10.362;2022-08-14T00:51:16;24.50;59.90
18694;DHT22;9477;51.414;10.362;2022-08-14T00:53:18;24.50;60.10
18694;DHT22;9477;51.414;10.362;2022-08-14T00:55:21;24.30;60.30
18694;DHT22;9477;51.414;10.362;2022-08-14T00:57:26;24.30;60.40
18694;DHT22;9477;51.414;10.362;2022-08-14T00:59:29;24.30;60.40
18694;DHT22;9477;51.414;10.362;2022-08-14T01:01:33;24.30;60.50
18694;DHT22;9477;51.414;10.362;2022-08-14T01:03:38;24.30;60.50
18694;DHT22;9477;51.414;10.362;2022-08-14T01:05:45;24.30;60.70
18694;DHT22;9477;51.414;10.362;2022-08-14T01:07:53;24.30;60.60
18694;DHT22;9477;51.414;10.362;2022-08-14T01:10:00;24.30;60.70
18694;DHT22;9477;51.414;10.362;2022-08-14T01:12:06;24.30;60.70
18694;DHT22;9477;51.414;10.362;2022-08-14T01:14:11;24.20;60.80
18694;DHT22;9477;51.414;10.362;2022-08-14T01:16:29;24.20;60.80
18694;DHT22;9477;51.414;10.362;2022-08-14T01:18:33;24.20;60.80
18694;DHT22;9477;51.414;10.362;2022-08-14T01:21:06;24.20;60.80
18694;DHT22;9477;51.414;10.362;2022-08-14T01:23:14;24.20;61.10
18694;DHT22;9477;51.414;10.362;2022-08-14T01:25:22;24.10;61.20
18694;DHT22;9477;51.414;10.362;2022-08-14T01:27:25;24.10;61.50
18694;DHT22;9477;51.414;10.362;2022-08-14T01:29:31;24.10;61.40
18694;DHT22;9477;51.414;10.362;2022-08-14T01:31:56;24.10;61.80
18694;DHT22;9477;51.414;10.362;2022-08-14T01:34:05;24.00;61.70
18694;DHT22;9477;51.414;10.362;2022-08-14T01:36:29;24.00;61.50
18694;DHT22;9477;51.414;10.362;2022-08-14T01:38:40;24.00;61.70
18694;DHT22;9477;51.414;10.362;2022-08-14T01:40:49;24.00;61.50
18694;DHT22;9477;51.414;10.362;2022-08-14T01:42:54;24.00;61.70
18694;DHT22;9477;51.414;10.362;2022-08-14T01:44:58;24.00;61.40
18694;DHT22;9477;51.414;10.362;2022-08-14T01:47:05;24.00;61.60
18694;DHT22;9477;51.414;10.362;2022-08-14T01:49:23;24.00;61.90
18694;DHT22;9477;51.414;10.362;2022-08-14T01:51:36;24.00;61.80
18694;DHT22;9477;51.414;10.362;2022-08-14T01:53:44;24.00;61.60
18694;DHT22;9477;51.414;10.362;2022-08-14T01:55:57;23.90;61.60
18694;DHT22;9477;51.414;10.362;2022-08-14T01:58:01;23.90;61.50
18694;DHT22;9477;51.414;10.362;2022-08-14T02:00:21;23.90;61.60
18694;DHT22;9477;51.414;10.362;2022-08-14T02:02:28;23.90;61.90
18694;DHT22;9477;51.414;10.362;2022-08-14T02:04:38;23.80;62.00
18694;DHT22;9477;51.414;10.362;2022-08-14T02:06:58;23.70;62.10
18694;DHT22;9477;51.414;10.362;2022-08-14T02:09:03;23.60;62.10
18694;DHT22;9477;51.414;10.362;2022-08-14T02:11:22;23.60;62.10
18694;DHT22;9477;51.414;10.362;2022-08-14T02:13:25;23.70;62.20
18694;DHT22;9477;51.414;10.362;2022-08-14T02:15:31;23.60;62.20
18694;DHT22;9477;51.414;10.362;2022-08-14T02:17:34;23.60;62.40
18694;DHT22;9477;51.414;10.362;2022-08-14T02:19:38;23.60;62.40
18694;DHT22;9477;51.414;10.362;2022-08-14T02:21:45;23.60;62.40
18694;DHT22;9477;51.414;10.362;2022-08-14T02:23:52;23.60;62.30
18694;DHT22;9477;51.414;10.362;2022-08-14T02:26:01;23.60;62.20
18694;DHT22;9477;51.414;10.362;2022-08-14T02:28:25;23.60;62.20
18694;DHT22;9477;51.414;10.362;2022-08-14T02:30:51;23.60;62.20
18694;DHT22;9477;51.414;10.362;2022-08-14T02:32:55;23.60;62.30
18694;DHT22;9477;51.414;10.362;2022-08-14T02:34:59;23.60;62.20
18694;DHT22;9477;51.414;10.362;2022-08-14T02:37:07;23.50;62.20
18694;DHT22;9477;51.414;10.362;2022-08-14T02:39:12;23.50;62.40
18694;DHT22;9477;51.414;10.362;2022-08-14T02:41:17;23.50;62.10
18694;DHT22;9477;51.414;10.362;2022-08-14T02:43:19;23.40;62.10
18694;DHT22;9477;51.414;10.362;2022-08-14T02:45:24;23.40;62.30
18694;DHT22;9477;51.414;10.362;2022-08-14T02:47:39;23.40;62.20
18694;DHT22;9477;51.414;10.362;2022-08-14T02:49:49;23.40;62.00
18694;DHT22;9477;51.414;10.362;2022-08-14T02:51:57;23.40;61.90
18694;DHT22;9477;51.414;10.362;2022-08-14T02:54:01;23.40;62.20
18694;DHT22;9477;51.414;10.362;2022-08-14T02:56:06;23.30;62.20
18694;DHT22;9477;51.414;10.362;2022-08-14T02:58:31;23.30;62.30
18694;DHT22;9477;51.414;10.362;2022-08-14T03:00:37;23.30;62.20
18694;DHT22;9477;51.414;10.362;2022-08-14T03:02:41;23.30;62.20
18694;DHT22;9477;51.414;10.362;2022-08-14T03:04:59;23.30;62.40
18694;DHT22;9477;51.414;10.362;2022-08-14T03:07:01;23.20;62.40
18694;DHT22;9477;51.414;10.362;2022-08-14T03:09:09;23.20;62.50
18694;DHT22;9477;51.414;10.362;2022-08-14T03:11:13;23.20;62.60
18694;DHT22;9477;51.414;10.362;2022-08-14T03:13:17;23.10;62.80
18694;DHT22;9477;51.414;10.362;2022-08-14T03:15:23;23.10;62.90
18694;DHT22;9477;51.414;10.362;2022-08-14T03:17:26;23.10;62.90
18694;DHT22;9477;51.414;10.362;2022-08-14T03:19:41;23.10;62.90
18694;DHT22;9477;51.414;10.362;2022-08-14T03:21:44;23.10;62.80
18694;DHT22;9477;51.414;10.362;2022-08-14T03:23:53;23.00;62.80
18694;DHT22;9477;51.414;10.362;2022-08-14T03:26:07;23.00;62.60
18694;DHT22;9477;51.414;10.362;2022-08-14T03:28:19;23.00;62.70
18694;DHT22;9477;51.414;10.362;2022-08-14T03:30:35;22.90;62.70
18694;DHT22;9477;51.414;10.362;2022-08-14T03:32:41;22.90;62.80
18694;DHT22;9477;51.414;10.362;2022-08-14T03:34:46;22.90;62.80
18694;DHT22;9477;51.414;10.362;2022-08-14T03:36:56;22.90;62.60
18694;DHT22;9477;51.414;10.362;2022-08-14T03:39:19;23.00;62.60
18694;DHT22;9477;51.414;10.362;2022-08-14T03:41:28;23.00;62.50
18694;DHT22;9477;51.414;10.362;2022-08-14T03:43:34;23.10;62.50
18694;DHT22;9477;51.414;10.362;2022-08-14T03:45:40;23.10;62.50
18694;DHT22;9477;51.414;10.362;2022-08-14T03:47:49;23.00;62.50
18694;DHT22;9477;51.414;10.362;2022-08-14T03:49:59;22.90;62.60
18694;DHT22;9477;51.414;10.362;2022-08-14T03:52:03;22.90;62.80
18694;DHT22;9477;51.414;10.362;2022-08-14T03:54:26;22.80;62.80
18694;DHT22;9477;51.414;10.362;2022-08-14T03:56:30;22.70;63.10
18694;DHT22;9477;51.414;10.362;2022-08-14T03:58:36;22.70;63.10
18694;DHT22;9477;51.414;10.362;2022-08-14T04:00:40;22.70;63.20
18694;DHT22;9477;51.414;10.362;2022-08-14T04:02:46;22.70;63.20
18694;DHT22;9477;51.414;10.362;2022-08-14T04:04:54;22.70;63.50
18694;DHT22;9477;51.414;10.362;2022-08-14T04:07:08;22.60;63.50
18694;DHT22;9477;51.414;10.362;2022-08-14T04:09:11;22.60;63.40
18694;DHT22;9477;51.414;10.362;2022-08-14T04:11:18;22.60;63.50
18694;DHT22;9477;51.414;10.362;2022-08-14T04:13:21;22.50;63.40
18694;DHT22;9477;51.414;10.362;2022-08-14T04:15:24;22.50;63.50
18694;DHT22;9477;51.414;10.362;2022-08-14T04:17:28;22.50;63.30
18694;DHT22;9477;51.414;10.362;2022-08-14T04:19:31;22.60;63.30
18694;DHT22;9477;51.414;10.362;2022-08-14T04:21:37;22.70;63.10
18694;DHT22;9477;51.414;10.362;2022-08-14T04:24:00;22.70;63.00
18694;DHT22;9477;51.414;10.362;2022-08-14T04:26:10;22.70;63.20
18694;DHT22;9477;51.414;10.362;2022-08-14T04:28:28;22.70;63.20
18694;DHT22;9477;51.414;10.362;2022-08-14T04:30:51;22.60;63.40
18694;DHT22;9477;51.414;10.362;2022-08-14T04:33:01;22.60;63.40
18694;DHT22;9477;51.414;10.362;2022-08-14T04:35:11;22.70;63.50
18694;DHT22;9477;51.414;10.362;2022-08-14T04:37:24;22.70;63.50
18694;DHT22;9477;51.414;10.362;2022-08-14T04:39:45;22.70;63.30
18694;DHT22;9477;51.414;10.362;2022-08-14T04:42:09;22.70;63.60
18694;DHT22;9477;51.414;10.362;2022-08-14T04:44:29;22.70;63.70
18694;DHT22;9477;51.414;10.362;2022-08-14T04:46:37;22.60;63.90
18694;DHT22;9477;51.414;10.362;2022-08-14T04:48:59;22.60;64.20
18694;DHT22;9477;51.414;10.362;2022-08-14T04:51:05;22.50;64.40
18694;DHT22;9477;51.414;10.362;2022-08-14T04:53:09;22.50;64.60
18694;DHT22;9477;51.414;10.362;2022-08-14T04:55:13;22.60;64.90
18694;DHT22;9477;51.414;10.362;2022-08-14T04:57:16;22.60;64.90
18694;DHT22;9477;51.414;10.362;2022-08-14T04:59:20;22.60;64.60
18694;DHT22;9477;51.414;10.362;2022-08-14T05:01:24;22.70;65.00
18694;DHT22;9477;51.414;10.362;2022-08-14T05:03:29;22.80;64.80
18694;DHT22;9477;51.414;10.362;2022-08-14T05:05:33;22.90;65.10
18694;DHT22;9477;51.414;10.362;2022-08-14T05:07:36;22.90;64.70
18694;DHT22;9477;51.414;10.362;2022-08-14T05:10:00;23.00;64.40
18694;DHT22;9477;51.414;10.362;2022-08-14T05:12:17;23.00;64.40
18694;DHT22;9477;51.414;10.362;2022-08-14T05:14:39;23.10;64.20
18694;DHT22;9477;51.414;10.362;2022-08-14T05:16:54;23.20;64.00
18694;DHT22;9477;51.414;10.362;2022-08-14T05:19:02;23.20;63.90
18694;DHT22;9477;51.414;10.362;2022-08-14T05:21:27;23.30;64.00
18694;DHT22;9477;51.414;10.362;2022-08-14T05:23:50;23.20;64.50
18694;DHT22;9477;51.414;10.362;2022-08-14T05:25:57;23.20;65.00
18694;DHT22;9477;51.414;10.362;2022-08-14T05:28:11;23.20;65.30
18694;DHT22;9477;51.414;10.362;2022-08-14T05:30:21;23.30;64.80
18694;DHT22;9477;51.414;10.362;2022-08-14T05:32:24;23.30;64.60
18694;DHT22;9477;51.414;10.362;2022-08-14T05:34:28;23.40;64.60
18694;DHT22;9477;51.414;10.362;2022-08-14T05:36:34;23.50;64.40
18694;DHT22;9477;51.414;10.362;2022-08-14T05:38:42;23.50;64.30
18694;DHT22;9477;51.414;10.362;2022-08-14T05:40:46;23.60;64.30
18694;DHT22;9477;51.414;10.362;2022-08-14T05:42:49;23.60;64.20
18694;DHT22;9477;51.414;10.362;2022-08-14T05:44:53;23.70;64.30
18694;DHT22;9477;51.414;10.362;2022-08-14T05:46:56;23.80;64.20
18694;DHT22;9477;51.414;10.362;2022-08-14T05:48:59;23.90;64.20
18694;DHT22;9477;51.414;10.362;2022-08-14T05:51:04;23.90;64.20
18694;DHT22;9477;51.414;10.362;2022-08-14T05:53:10;24.00;64.50
18694;DHT22;9477;51.414;10.362;2022-08-14T05:55:15;24.10;64.90
18694;DHT22;9477;51.414;10.362;2022-08-14T05:57:23;24.10;64.70
18694;DHT22;9477;51.414;10.362;2022-08-14T05:59:28;24.20;65.10
18694;DHT22;9477;51.414;10.362;2022-08-14T06:01:40;24.30;65.40
18694;DHT22;9477;51.414;10.362;2022-08-14T06:03:44;24.40;65.10
18694;DHT22;9477;51.414;10.362;2022-08-14T06:05:50;24.50;66.00
18694;DHT22;9477;51.414;10.362;2022-08-14T06:07:54;24.50;66.10
18694;DHT22;9477;51.414;10.362;2022-08-14T06:09:59;24.60;66.50
18694;DHT22;9477;51.414;10.362;2022-08-14T06:12:05;24.70;66.50
18694;DHT22;9477;51.414;10.362;2022-08-14T06:14:08;24.80;66.70
18694;DHT22;9477;51.414;10.362;2022-08-14T06:16:24;24.90;66.70
18694;DHT22;9477;51.414;10.362;2022-08-14T06:18:27;24.90;67.10
18694;DHT22;9477;51.414;10.362;2022-08-14T06:20:32;25.00;67.00
18694;DHT22;9477;51.414;10.362;2022-08-14T06:22:35;25.10;67.00
18694;DHT22;9477;51.414;10.362;2022-08-14T06:24:38;25.20;67.10
18694;DHT22;9477;51.414;10.362;2022-08-14T06:26:46;25.20;67.30
18694;DHT22;9477;51.414;10.362;2022-08-14T06:28:57;25.20;67.50
18694;DHT22;9477;51.414;10.362;2022-08-14T06:31:00;25.20;67.60
18694;DHT22;9477;51.414;10.362;2022-08-14T06:33:03;25.30;67.80
18694;DHT22;9477;51.414;10.362;2022-08-14T06:35:09;25.30;67.50
18694;DHT22;9477;51.414;10.362;2022-08-14T06:37:14;25.40;67.60
18694;DHT22;9477;51.414;10.362;2022-08-14T06:39:19;25.60;67.20
18694;DHT22;9477;51.414;10.362;2022-08-14T06:41:38;25.70;67.20
18694;DHT22;9477;51.414;10.362;2022-08-14T06:44:02;25.70;67.30
18694;DHT22;9477;51.414;10.362;2022-08-14T06:46:05;25.70;67.30
18694;DHT22;9477;51.414;10.362;2022-08-14T06:48:30;25.90;67.00
18694;DHT22;9477;51.414;10.362;2022-08-14T06:50:35;26.00;66.80
18694;DHT22;9477;51.414;10.362;2022-08-14T06:52:40;26.10;66.70
18694;DHT22;9477;51.414;10.362;2022-08-14T06:54:51;26.20;66.60
18694;DHT22;9477;51.414;10.362;2022-08-14T06:56:53;26.20;66.50
18694;DHT22;9477;51.414;10.362;2022-08-14T06:58:57;26.20;66.40
18694;DHT22;9477;51.414;10.362;2022-08-14T07:01:02;26.30;66.20
18694;DHT22;9477;51.414;10.362;2022-08-14T07:03:32;26.30;66.20
18694;DHT22;9477;51.414;10.362;2022-08-14T07:05:53;26.40;66.00
18694;DHT22;9477;51.414;10.362;2022-08-14T07:07:59;26.60;65.70
18694;DHT22;9477;51.414;10.362;2022-08-14T07:10:02;26.70;66.40
18694;DHT22;9477;51.414;10.362;2022-08-14T07:12:06;26.80;65.70
18694;DHT22;9477;51.414;10.362;2022-08-14T07:14:29;26.80;65.40
18694;DHT22;9477;51.414;10.362;2022-08-14T07:16:35;26.90;65.30
18694;DHT22;9477;51.414;10.362;2022-08-14T07:18:38;26.90;65.10
18694;DHT22;9477;51.414;10.362;2022-08-14T07:20:43;27.00;64.80
18694;DHT22;9477;51.414;10.362;2022-08-14T07:22:46;27.10;64.80
18694;DHT22;9477;51.414;10.362;2022-08-14T07:24:57;27.20;64.80
18694;DHT22;9477;51.414;10.362;2022-08-14T07:26:59;27.30;64.10
18694;DHT22;9477;51.414;10.362;2022-08-14T07:29:02;27.40;64.10
18694;DHT22;9477;51.414;10.362;2022-08-14T07:31:09;27.50;64.10
18694;DHT22;9477;51.414;10.362;2022-08-14T07:33:13;27.50;63.70
18694;DHT22;9477;51.414;10.362;2022-08-14T07:35:17;27.60;62.90
18694;DHT22;9477;51.414;10.362;2022-08-14T07:37:20;27.70;62.90
18694;DHT22;9477;51.414;10.362;2022-08-14T07:39:22;27.70;63.40
18694;DHT22;9477;51.414;10.362;2022-08-14T07:41:28;27.70;63.30
18694;DHT22;9477;51.414;10.362;2022-08-14T07:43:35;27.90;62.40
18694;DHT22;9477;51.414;10.362;2022-08-14T07:45:39;27.90;62.30
18694;DHT22;9477;51.414;10.362;2022-08-14T07:47:42;28.00;62.50
18694;DHT22;9477;51.414;10.362;2022-08-14T07:49:58;28.10;62.30
18694;DHT22;9477;51.414;10.362;2022-08-14T07:52:03;28.10;62.10
18694;DHT22;9477;51.414;10.362;2022-08-14T07:54:08;28.20;62.30
18694;DHT22;9477;51.414;10.362;2022-08-14T07:56:12;28.20;61.90
18694;DHT22;9477;51.414;10.362;2022-08-14T07:58:35;28.30;61.30
18694;DHT22;9477;51.414;10.362;2022-08-14T08:00:40;28.40;61.30
18694;DHT22;9477;51.414;10.362;2022-08-14T08:02:44;28.40;60.70
18694;DHT22;9477;51.414;10.362;2022-08-14T08:04:59;28.40;60.80
18694;DHT22;9477;51.414;10.362;2022-08-14T08:07:03;28.50;60.50
18694;DHT22;9477;51.414;10.362;2022-08-14T08:09:08;28.50;60.30
18694;DHT22;9477;51.414;10.362;2022-08-14T08:11:12;28.50;60.70
18694;DHT22;9477;51.414;10.362;2022-08-14T08:13:17;28.50;60.70
18694;DHT22;9477;51.414;10.362;2022-08-14T08:15:26;28.60;60.30
18694;DHT22;9477;51.414;10.362;2022-08-14T08:17:31;28.70;60.60
18694;DHT22;9477;51.414;10.362;2022-08-14T08:19:45;28.80;60.50
18694;DHT22;9477;51.414;10.362;2022-08-14T08:21:53;28.90;60.40
18694;DHT22;9477;51.414;10.362;2022-08-14T08:23:56;29.00;60.70
18694;DHT22;9477;51.414;10.362;2022-08-14T08:25:59;29.00;60.50
18694;DHT22;9477;51.414;10.362;2022-08-14T08:28:04;29.10;59.80
18694;DHT22;9477;51.414;10.362;2022-08-14T08:30:20;29.10;59.80
18694;DHT22;9477;51.414;10.362;2022-08-14T08:32:23;29.00;59.50
18694;DHT22;9477;51.414;10.362;2022-08-14T08:34:30;29.00;59.40
18694;DHT22;9477;51.414;10.362;2022-08-14T08:36:39;28.90;59.50
18694;DHT22;9477;51.414;10.362;2022-08-14T08:38:49;28.70;59.30
18694;DHT22;9477;51.414;10.362;2022-08-14T08:41:12;28.80;59.20
18694;DHT22;9477;51.414;10.362;2022-08-14T08:43:20;28.90;58.90
18694;DHT22;9477;51.414;10.362;2022-08-14T08:45:25;29.00;58.60
18694;DHT22;9477;51.414;10.362;2022-08-14T08:47:37;29.00;59.00
18694;DHT22;9477;51.414;10.362;2022-08-14T08:49:41;29.00;59.20
18694;DHT22;9477;51.414;10.362;2022-08-14T08:52:00;29.00;59.50
18694;DHT22;9477;51.414;10.362;2022-08-14T08:54:07;29.00;59.30
18694;DHT22;9477;51.414;10.362;2022-08-14T08:56:18;29.20;58.90
18694;DHT22;9477;51.414;10.362;2022-08-14T08:58:40;29.30;59.00
18694;DHT22;9477;51.414;10.362;2022-08-14T09:00:46;29.20;58.80
18694;DHT22;9477;51.414;10.362;2022-08-14T09:02:58;29.20;58.60
18694;DHT22;9477;51.414;10.362;2022-08-14T09:05:05;29.30;58.60
18694;DHT22;9477;51.414;10.362;2022-08-14T09:07:09;29.30;58.70
18694;DHT22;9477;51.414;10.362;2022-08-14T09:09:21;29.40;58.50
18694;DHT22;9477;51.414;10.362;2022-08-14T09:11:24;29.50;58.50
18694;DHT22;9477;51.414;10.362;2022-08-14T09:13:27;29.50;58.50
18694;DHT22;9477;51.414;10.362;2022-08-14T09:15:34;29.60;58.40
18694;DHT22;9477;51.414;10.362;2022-08-14T09:17:43;29.70;57.20
18694;DHT22;9477;51.414;10.362;2022-08-14T09:19:47;29.70;57.50
18694;DHT22;9477;51.414;10.362;2022-08-14T09:21:52;29.80;56.50
18694;DHT22;9477;51.414;10.362;2022-08-14T09:23:56;29.90;56.80
18694;DHT22;9477;51.414;10.362;2022-08-14T09:26:20;29.90;56.90
18694;DHT22;9477;51.414;10.362;2022-08-14T09:28:29;30.00;56.30
18694;DHT22;9477;51.414;10.362;2022-08-14T09:30:37;30.00;57.10
18694;DHT22;9477;51.414;10.362;2022-08-14T09:35:31;30.10;55.70
18694;DHT22;9477;51.414;10.362;2022-08-14T09:37:54;30.20;55.70
18694;DHT22;9477;51.414;10.362;2022-08-14T09:40:04;30.00;56.00
18694;DHT22;9477;51.414;10.362;2022-08-14T09:42:32;30.10;55.60
18694;DHT22;9477;51.414;10.362;2022-08-14T09:44:43;30.20;55.30
18694;DHT22;9477;51.414;10.362;2022-08-14T09:46:53;30.30;55.30
18694;DHT22;9477;51.414;10.362;2022-08-14T09:48:59;30.40;55.30
18694;DHT22;9477;51.414;10.362;2022-08-14T09:51:02;30.50;55.40
18694;DHT22;9477;51.414;10.362;2022-08-14T09:53:06;30.00;54.70
18694;DHT22;9477;51.414;10.362;2022-08-14T09:55:20;30.50;55.40
18694;DHT22;9477;51.414;10.362;2022-08-14T09:57:25;30.60;54.80
18694;DHT22;9477;51.414;10.362;2022-08-14T09:59:39;30.70;55.10
18694;DHT22;9477;51.414;10.362;2022-08-14T10:01:43;30.80;54.70
18694;DHT22;9477;51.414;10.362;2022-08-14T10:03:55;30.90;54.20
18694;DHT22;9477;51.414;10.362;2022-08-14T10:06:08;31.00;53.80
18694;DHT22;9477;51.414;10.362;2022-08-14T10:08:18;31.20;53.60
18694;DHT22;9477;51.414;10.362;2022-08-14T10:10:29;31.10;53.00
18694;DHT22;9477;51.414;10.362;2022-08-14T10:12:45;31.10;53.40
18694;DHT22;9477;51.414;10.362;2022-08-14T10:14:55;31.20;53.40
18694;DHT22;9477;51.414;10.362;2022-08-14T10:17:00;31.30;52.90
18694;DHT22;9477;51.414;10.362;2022-08-14T10:19:09;31.40;53.10
18694;DHT22;9477;51.414;10.362;2022-08-14T10:21:15;31.50;52.10
18694;DHT22;9477;51.414;10.362;2022-08-14T10:23:20;31.60;52.50
18694;DHT22;9477;51.414;10.362;2022-08-14T10:25:23;31.70;52.10
18694;DHT22;9477;51.414;10.362;2022-08-14T10:27:34;31.80;51.60
18694;DHT22;9477;51.414;10.362;2022-08-14T10:29:41;31.80;52.20
18694;DHT22;9477;51.414;10.362;2022-08-14T10:31:55;31.60;51.60
18694;DHT22;9477;51.414;10.362;2022-08-14T10:34:03;31.60;51.40
18694;DHT22;9477;51.414;10.362;2022-08-14T10:36:25;31.70;51.40
18694;DHT22;9477;51.414;10.362;2022-08-14T10:38:41;31.50;51.30
18694;DHT22;9477;51.414;10.362;2022-08-14T10:40:52;31.60;51.50
18694;DHT22;9477;51.414;10.362;2022-08-14T10:43:00;31.70;51.90
18694;DHT22;9477;51.414;10.362;2022-08-14T10:45:17;31.90;52.10
18694;DHT22;9477;51.414;10.362;2022-08-14T10:47:21;32.10;51.10
18694;DHT22;9477;51.414;10.362;2022-08-14T10:49:56;32.10;50.80
18694;DHT22;9477;51.414;10.362;2022-08-14T10:52:03;32.10;51.40
18694;DHT22;9477;51.414;10.362;2022-08-14T10:54:09;32.00;51.50
18694;DHT22;9477;51.414;10.362;2022-08-14T10:56:33;32.10;51.70
18694;DHT22;9477;51.414;10.362;2022-08-14T10:58:36;32.20;50.80
18694;DHT22;9477;51.414;10.362;2022-08-14T11:00:41;32.30;50.70
18694;DHT22;9477;51.414;10.362;2022-08-14T11:02:59;32.40;50.50
18694;DHT22;9477;51.414;10.362;2022-08-14T11:05:06;32.20;50.10
18694;DHT22;9477;51.414;10.362;2022-08-14T11:07:13;32.10;50.20
18694;DHT22;9477;51.414;10.362;2022-08-14T11:09:21;32.10;50.20
18694;DHT22;9477;51.414;10.362;2022-08-14T11:11:41;32.10;50.30
18694;DHT22;9477;51.414;10.362;2022-08-14T11:13:47;32.20;50.40
18694;DHT22;9477;51.414;10.362;2022-08-14T11:15:54;32.20;50.00
18694;DHT22;9477;51.414;10.362;2022-08-14T11:17:58;32.30;49.80
18694;DHT22;9477;51.414;10.362;2022-08-14T11:20:04;32.20;50.10
18694;DHT22;9477;51.414;10.362;2022-08-14T11:22:16;32.20;50.10
18694;DHT22;9477;51.414;10.362;2022-08-14T11:24:41;32.30;50.30
18694;DHT22;9477;51.414;10.362;2022-08-14T11:26:57;32.30;50.20
18694;DHT22;9477;51.414;10.362;2022-08-14T11:29:02;32.40;49.70
18694;DHT22;9477;51.414;10.362;2022-08-14T11:31:08;32.50;50.10
18694;DHT22;9477;51.414;10.362;2022-08-14T11:33:11;32.50;50.20
18694;DHT22;9477;51.414;10.362;2022-08-14T11:35:18;32.20;49.10
18694;DHT22;9477;51.414;10.362;2022-08-14T11:37:21;32.30;49.70
18694;DHT22;9477;51.414;10.362;2022-08-14T11:39:41;32.50;50.10
18694;DHT22;9477;51.414;10.362;2022-08-14T11:41:46;32.70;49.90
18694;DHT22;9477;51.414;10.362;2022-08-14T11:43:56;32.80;48.90
18694;DHT22;9477;51.414;10.362;2022-08-14T11:46:00;33.00;48.50
18694;DHT22;9477;51.414;10.362;2022-08-14T11:48:16;33.00;48.60
18694;DHT22;9477;51.414;10.362;2022-08-14T11:50:39;33.20;47.50
18694;DHT22;9477;51.414;10.362;2022-08-14T11:52:44;33.30;47.40
18694;DHT22;9477;51.414;10.362;2022-08-14T11:54:56;33.30;47.50
18694;DHT22;9477;51.414;10.362;2022-08-14T11:57:01;33.10;47.50
18694;DHT22;9477;51.414;10.362;2022-08-14T11:59:07;33.00;48.10
18694;DHT22;9477;51.414;10.362;2022-08-14T12:01:13;32.80;48.30
18694;DHT22;9477;51.414;10.362;2022-08-14T12:03:18;32.90;48.40
18694;DHT22;9477;51.414;10.362;2022-08-14T12:05:41;33.00;47.80
18694;DHT22;9477;51.414;10.362;2022-08-14T12:07:47;33.30;47.70
18694;DHT22;9477;51.414;10.362;2022-08-14T12:09:51;33.40;47.60
18694;DHT22;9477;51.414;10.362;2022-08-14T12:11:56;33.50;47.50
18694;DHT22;9477;51.414;10.362;2022-08-14T12:14:06;33.30;47.10
18694;DHT22;9477;51.414;10.362;2022-08-14T12:16:15;33.40;48.00
18694;DHT22;9477;51.414;10.362;2022-08-14T12:18:29;33.40;48.00
18694;DHT22;9477;51.414;10.362;2022-08-14T12:20:37;33.30;47.60
18694;DHT22;9477;51.414;10.362;2022-08-14T12:22:46;33.20;47.10
18694;DHT22;9477;51.414;10.362;2022-08-14T12:24:55;33.30;47.10
18694;DHT22;9477;51.414;10.362;2022-08-14T12:26:58;33.30;47.60
18694;DHT22;9477;51.414;10.362;2022-08-14T12:29:05;33.40;47.00
18694;DHT22;9477;51.414;10.362;2022-08-14T12:31:14;33.50;47.10
18694;DHT22;9477;51.414;10.362;2022-08-14T12:33:23;33.50;47.00
18694;DHT22;9477;51.414;10.362;2022-08-14T12:35:37;33.50;46.50
18694;DHT22;9477;51.414;10.362;2022-08-14T12:37:46;33.60;46.20
18694;DHT22;9477;51.414;10.362;2022-08-14T12:39:51;33.60;46.80
18694;DHT22;9477;51.414;10.362;2022-08-14T12:41:58;33.80;45.90
18694;DHT22;9477;51.414;10.362;2022-08-14T12:44:06;34.10;46.10
18694;DHT22;9477;51.414;10.362;2022-08-14T12:46:09;34.20;45.80
18694;DHT22;9477;51.414;10.362;2022-08-14T12:48:28;34.30;45.20
18694;DHT22;9477;51.414;10.362;2022-08-14T12:50:39;34.30;45.00
18694;DHT22;9477;51.414;10.362;2022-08-14T12:52:42;34.30;44.80
18694;DHT22;9477;51.414;10.362;2022-08-14T12:55:08;34.10;44.60
18694;DHT22;9477;51.414;10.362;2022-08-14T12:57:12;34.10;45.10
18694;DHT22;9477;51.414;10.362;2022-08-14T12:59:28;34.30;44.70
18694;DHT22;9477;51.414;10.362;2022-08-14T13:01:37;34.20;44.50
18694;DHT22;9477;51.414;10.362;2022-08-14T13:04:03;34.30;45.00
18694;DHT22;9477;51.414;10.362;2022-08-14T13:06:09;34.40;44.60
18694;DHT22;9477;51.414;10.362;2022-08-14T13:08:13;34.60;44.50
18694;DHT22;9477;51.414;10.362;2022-08-14T13:10:34;34.60;44.70
18694;DHT22;9477;51.414;10.362;2022-08-14T13:12:55;34.70;43.90
18694;DHT22;9477;51.414;10.362;2022-08-14T13:15:15;34.70;43.80
18694;DHT22;9477;51.414;10.362;2022-08-14T13:17:20;34.80;44.10
18694;DHT22;9477;51.414;10.362;2022-08-14T13:19:28;34.80;44.30
18694;DHT22;9477;51.414;10.362;2022-08-14T13:21:32;34.80;43.80
18694;DHT22;9477;51.414;10.362;2022-08-14T13:23:56;34.80;43.40
18694;DHT22;9477;51.414;10.362;2022-08-14T13:25:59;34.80;43.90
18694;DHT22;9477;51.414;10.362;2022-08-14T13:28:03;34.80;43.60
18694;DHT22;9477;51.414;10.362;2022-08-14T13:30:12;34.80;42.80
18694;DHT22;9477;51.414;10.362;2022-08-14T13:32:25;35.00;42.80
18694;DHT22;9477;51.414;10.362;2022-08-14T13:34:29;35.20;42.60
18694;DHT22;9477;51.414;10.362;2022-08-14T13:36:35;35.10;42.50
18694;DHT22;9477;51.414;10.362;2022-08-14T13:38:58;35.20;42.70